Time;durP1;ratioP1;P1;durP2;ratioP2;P2;SDS_P1;SDS_P2;PMS_P1;PMS_P2;Temp;Humidity;BMP_temperature;BMP_pressure;BME280_temperature;BME280_humidity;BME280_pressure;Samples;Min_cycle;Max_cycle;Signal;HPM_P1;HPM_P2
2023/10/02 00:05:07;;;;;;;5.80;2.08;;;16.10;99.90;;;;;;5054143;28;20047;-82
2023/10/02 00:07:34;;;;;;;3.88;1.38;;;16.00;99.90;;;;;;5052722;28;20080;-82
2023/10/02 00:10:05;;;;;;;3.53;1.67;;;16.00;99.90;;;;;;5054715;28;20569;-82
2023/10/02 00:12:34;;;;;;;3.40;1.20;;;15.90;99.90;;;;;;5037564;28;20405;-82
2023/10/02 00:15:12;;;;;;;5.32;2.03;;;15.90;99.90;;;;;;5031387;28;20043;-82
2023/10/02 00:17:43;;;;;;;4.70;1.70;;;15.90;99.90;;;;;;5053368;28;20481;-82
2023/10/02 00:20:21;;;;;;;6.63;2.08;;;16.00;99.90;;;;;;5034593;28;20051;-82
2023/10/02 00:22:48;;;;;;;3.90;1.42;;;15.90;99.90;;;;;;5053115;28;20388;-82
2023/10/02 00:25:19;;;;;;;6.68;2.40;;;15.90;99.90;;;;;;5038637;28;20040;-82
2023/10/02 00:27:54;;;;;;;6.60;2.00;;;16.00;99.90;;;;;;5050970;28;20485;-82
2023/10/02 00:30:35;;;;;;;6.15;2.15;;;16.00;99.90;;;;;;5054127;28;20049;-82
2023/10/02 00:33:02;;;;;;;4.57;1.80;;;16.00;99.90;;;;;;5035618;28;20045;-82
2023/10/02 00:35:30;;;;;;;4.70;2.20;;;16.00;99.90;;;;;;5055472;28;20819;-83
2023/10/02 00:37:57;;;;;;;4.68;2.00;;;16.10;99.90;;;;;;5050534;28;20048;-82
2023/10/02 00:40:30;;;;;;;5.97;2.40;;;16.10;99.90;;;;;;5050672;28;20100;-82
2023/10/02 00:45:49;;;;;;;6.10;2.22;;;16.20;99.90;;;;;;5054856;28;20040;-82
2023/10/02 00:48:25;;;;;;;9.90;1.77;;;16.20;99.90;;;;;;5051721;28;20036;-82
2023/10/02 00:50:54;;;;;;;5.35;2.05;;;16.20;99.90;;;;;;5048981;28;20039;-83
2023/10/02 00:53:39;;;;;;;6.40;2.13;;;16.20;99.90;;;;;;5033852;28;20354;-82
2023/10/02 00:56:19;;;;;;;7.95;2.30;;;16.20;99.90;;;;;;5037577;28;20044;-82
2023/10/02 00:59:00;;;;;;;5.70;2.15;;;16.30;99.90;;;;;;5052302;28;20044;-82
2023/10/02 01:01:34;;;;;;;4.93;1.75;;;16.30;99.90;;;;;;5053040;28;20068;-82
2023/10/02 01:04:11;;;;;;;6.13;2.50;;;16.30;99.90;;;;;;5037686;28;20032;-82
2023/10/02 01:06:54;;;;;;;4.65;1.88;;;16.40;99.90;;;;;;5053745;28;20598;-82
2023/10/02 01:09:26;;;;;;;6.90;2.45;;;16.40;99.90;;;;;;5032026;28;20103;-82
2023/10/02 01:11:58;;;;;;;5.72;2.80;;;16.40;99.90;;;;;;5053836;28;20131;-82
2023/10/02 01:17:14;;;;;;;5.45;2.63;;;16.40;99.90;;;;;;5050850;28;20053;-82
2023/10/02 01:19:57;;;;;;;5.28;1.73;;;16.50;99.90;;;;;;5035850;28;20048;-82
2023/10/02 01:22:28;;;;;;;5.97;2.58;;;16.50;99.90;;;;;;5035982;28;20045;-83
2023/10/02 01:25:14;;;;;;;5.35;2.25;;;16.50;99.90;;;;;;5052609;28;20048;-82
2023/10/02 01:27:51;;;;;;;6.10;2.35;;;16.50;99.90;;;;;;5053167;28;20496;-82
2023/10/02 01:30:20;;;;;;;5.40;2.72;;;16.50;99.90;;;;;;5051734;28;20047;-82
2023/10/02 01:35:48;;;;;;;7.93;2.85;;;16.60;99.90;;;;;;5050226;28;20588;-81
2023/10/02 01:38:33;;;;;;;3.85;2.40;;;16.50;99.90;;;;;;5031388;28;20115;-82
2023/10/02 01:41:06;;;;;;;8.05;3.50;;;16.60;99.90;;;;;;5051213;28;20047;-83
2023/10/02 01:43:45;;;;;;;5.28;2.00;;;16.60;99.90;;;;;;5032355;28;20040;-82
2023/10/02 01:46:17;;;;;;;5.65;2.35;;;16.60;99.90;;;;;;5050053;28;20053;-82
2023/10/02 01:48:44;;;;;;;8.95;3.15;;;16.60;99.90;;;;;;5051573;28;20098;-82
2023/10/02 01:51:20;;;;;;;6.47;2.55;;;16.60;99.90;;;;;;5052900;28;20032;-82
2023/10/02 01:53:57;;;;;;;6.07;2.45;;;16.60;99.90;;;;;;5033954;28;20051;-82
2023/10/02 01:56:29;;;;;;;6.18;2.55;;;16.60;99.90;;;;;;5037239;28;20035;-82
2023/10/02 01:59:08;;;;;;;7.68;2.50;;;16.60;99.90;;;;;;5034212;28;20043;-82
2023/10/02 02:01:46;;;;;;;5.70;2.38;;;16.60;99.90;;;;;;5048456;28;20123;-82
2023/10/02 02:04:15;;;;;;;6.30;2.20;;;16.70;99.90;;;;;;5034369;28;20522;-82
2023/10/02 02:06:55;;;;;;;7.90;3.00;;;16.70;99.90;;;;;;5048106;28;20155;-82
2023/10/02 02:09:25;;;;;;;5.45;2.55;;;16.70;99.90;;;;;;5033043;28;20048;-82
2023/10/02 02:12:10;;;;;;;10.60;2.75;;;16.60;99.90;;;;;;5052568;28;20048;-83
2023/10/02 02:14:49;;;;;;;7.05;2.70;;;16.70;99.90;;;;;;5035469;28;20539;-83
2023/10/02 02:17:26;;;;;;;5.70;2.60;;;16.70;99.90;;;;;;5026093;28;20560;-82
2023/10/02 02:19:53;;;;;;;7.15;2.70;;;16.70;99.90;;;;;;5026657;28;20085;-82
2023/10/02 02:22:31;;;;;;;6.47;2.40;;;16.70;99.90;;;;;;5051222;28;20032;-83
2023/10/02 02:25:00;;;;;;;7.03;2.05;;;16.70;99.90;;;;;;5046987;28;20044;-82
2023/10/02 02:27:27;;;;;;;5.35;2.72;;;16.70;99.90;;;;;;5035041;28;20033;-82
2023/10/02 02:29:58;;;;;;;7.68;2.50;;;16.70;99.90;;;;;;5051078;28;20098;-82
2023/10/02 02:35:21;;;;;;;5.68;2.65;;;16.60;99.90;;;;;;5030570;28;20093;-82
2023/10/02 02:37:49;;;;;;;6.28;3.05;;;16.60;99.90;;;;;;5034772;28;20037;-83
2023/10/02 02:40:27;;;;;;;6.47;2.83;;;16.60;99.90;;;;;;5049081;28;20093;-82
2023/10/02 02:42:54;;;;;;;6.72;1.73;;;16.60;99.90;;;;;;5034430;28;20101;-82
2023/10/02 02:45:31;;;;;;;6.65;2.92;;;16.60;99.90;;;;;;5051147;28;20075;-82
2023/10/02 02:48:10;;;;;;;6.45;2.15;;;16.50;99.90;;;;;;5050572;28;20076;-83
2023/10/02 02:50:46;;;;;;;8.13;3.28;;;16.50;99.90;;;;;;5032041;28;20033;-82
2023/10/02 02:53:22;;;;;;;5.88;2.28;;;16.40;99.90;;;;;;5050615;28;20055;-82
2023/10/02 02:56:23;;;;;;;6.85;2.72;;;16.40;99.90;;;;;;5050619;28;20052;-82
2023/10/02 02:58:52;;;;;;;7.20;2.67;;;16.40;99.90;;;;;;5035181;28;20040;-83
2023/10/02 03:01:22;;;;;;;8.13;3.13;;;16.30;99.90;;;;;;5033073;28;20028;-81
2023/10/02 03:04:11;;;;;;;6.07;1.98;;;16.40;99.90;;;;;;5035167;28;20581;-82
2023/10/02 03:06:37;;;;;;;4.63;2.17;;;16.30;99.90;;;;;;5036150;28;20040;-82
2023/10/02 03:09:05;;;;;;;7.20;1.98;;;16.30;99.90;;;;;;5035836;28;20057;-82
2023/10/02 03:11:32;;;;;;;6.18;2.42;;;16.20;99.90;;;;;;5033806;28;20057;-82
2023/10/02 03:14:14;;;;;;;6.47;2.35;;;16.20;99.90;;;;;;5052544;28;20484;-82
2023/10/02 03:16:44;;;;;;;5.88;2.15;;;16.20;99.90;;;;;;5035484;28;20037;-83
2023/10/02 03:19:13;;;;;;;6.38;2.55;;;16.20;99.90;;;;;;5053884;28;20072;-82
2023/10/02 03:21:42;;;;;;;4.90;2.25;;;16.10;99.90;;;;;;5047347;28;20045;-82
2023/10/02 03:24:08;;;;;;;7.57;3.10;;;16.10;99.90;;;;;;5048542;28;20428;-83
2023/10/02 03:29:01;;;;;;;5.18;2.55;;;16.10;99.90;;;;;;5049370;28;20162;-82
2023/10/02 03:31:34;;;;;;;5.22;2.22;;;16.10;99.90;;;;;;5052499;28;20091;-82
2023/10/02 03:34:29;;;;;;;5.22;2.58;;;16.10;99.90;;;;;;5063729;28;20044;-82
2023/10/02 03:36:59;;;;;;;4.00;2.10;;;16.00;99.90;;;;;;5032405;28;20133;-82
2023/10/02 03:42:14;;;;;;;6.07;2.65;;;15.90;99.90;;;;;;5050917;28;20044;-82
2023/10/02 03:44:42;;;;;;;5.72;2.42;;;15.90;99.90;;;;;;5049145;28;20386;-82
2023/10/02 03:47:12;;;;;;;8.80;3.15;;;15.90;99.90;;;;;;5050691;28;20484;-82
2023/10/02 03:49:42;;;;;;;7.82;2.40;;;15.80;99.90;;;;;;5035615;28;20036;-82
2023/10/02 03:52:09;;;;;;;4.10;1.67;;;15.80;99.90;;;;;;5034653;28;20043;-82
2023/10/02 03:54:35;;;;;;;8.18;2.40;;;15.70;99.90;;;;;;5052063;28;20041;-82
2023/10/02 03:57:01;;;;;;;7.82;2.13;;;15.70;99.90;;;;;;5034616;28;20037;-82
2023/10/02 03:59:32;;;;;;;7.57;2.78;;;15.60;99.90;;;;;;5048905;28;20033;-82
2023/10/02 04:04:48;;;;;;;3.88;2.15;;;15.60;99.90;;;;;;5050749;28;20084;-82
2023/10/02 04:07:14;;;;;;;6.22;2.75;;;15.50;99.90;;;;;;5049570;28;20036;-84
2023/10/02 04:09:41;;;;;;;5.70;2.10;;;15.50;99.90;;;;;;5050868;28;20102;-82
2023/10/02 04:12:07;;;;;;;6.22;2.60;;;15.50;99.90;;;;;;5054297;28;20488;-85
2023/10/02 04:14:33;;;;;;;6.00;2.30;;;15.50;99.90;;;;;;5050601;28;20040;-82
2023/10/02 04:19:49;;;;;;;5.53;2.55;;;15.40;99.90;;;;;;5049927;28;20036;-82
2023/10/02 04:22:25;;;;;;;6.13;2.58;;;15.40;99.90;;;;;;5053334;28;20544;-82
2023/10/02 04:24:58;;;;;;;9.57;2.38;;;15.40;99.90;;;;;;5033344;28;20044;-82
2023/10/02 04:28:00;;;;;;;8.40;2.50;;;15.40;99.90;;;;;;5037729;28;20041;-82
2023/10/02 04:32:49;;;;;;;5.32;2.20;;;15.50;99.90;;;;;;5053517;28;20492;-83
2023/10/02 04:38:07;;;;;;;6.88;2.78;;;15.50;99.90;;;;;;5053864;28;20106;-82
2023/10/02 04:40:52;;;;;;;6.75;2.55;;;15.50;99.90;;;;;;5052660;28;20094;-82
2023/10/02 04:43:25;;;;;;;6.88;2.45;;;15.50;99.90;;;;;;5032911;28;20533;-82
2023/10/02 04:46:08;;;;;;;5.88;2.78;;;15.50;99.90;;;;;;5052957;28;20052;-82
2023/10/02 04:48:42;;;;;;;5.10;1.90;;;15.40;99.90;;;;;;5049442;28;20048;-82
2023/10/02 04:51:11;;;;;;;9.10;2.63;;;15.40;99.90;;;;;;5050577;28;20047;-83
2023/10/02 04:53:41;;;;;;;6.18;2.85;;;15.40;99.90;;;;;;5052103;28;20289;-82
2023/10/02 04:56:13;;;;;;;5.32;2.17;;;15.40;99.90;;;;;;5036197;28;20049;-83
2023/10/02 04:58:47;;;;;;;8.65;2.50;;;15.30;99.90;;;;;;5037907;28;20522;-83
2023/10/02 05:01:28;;;;;;;10.30;2.97;;;15.30;99.90;;;;;;5049501;28;20045;-83
2023/10/02 05:04:02;;;;;;;6.90;2.78;;;15.30;99.90;;;;;;5037444;28;20044;-83
2023/10/02 05:06:52;;;;;;;5.50;2.15;;;15.30;99.90;;;;;;5035408;28;20481;-82
2023/10/02 05:09:25;;;;;;;10.27;3.38;;;15.20;99.90;;;;;;5052478;28;20076;-82
2023/10/02 05:14:26;;;;;;;5.90;2.92;;;15.20;99.90;;;;;;5052789;28;20499;-82
2023/10/02 05:17:16;;;;;;;6.97;3.05;;;15.20;99.90;;;;;;5047629;28;20047;-82
2023/10/02 05:19:56;;;;;;;7.50;3.25;;;15.20;99.90;;;;;;5051595;28;20052;-84
2023/10/02 05:22:24;;;;;;;6.95;2.75;;;15.20;99.90;;;;;;5050697;28;20063;-83
2023/10/02 05:24:58;;;;;;;5.18;2.47;;;15.10;99.90;;;;;;5053880;28;20047;-82
2023/10/02 05:27:30;;;;;;;8.45;3.03;;;15.10;99.90;;;;;;5050341;28;20039;-83
2023/10/02 05:29:59;;;;;;;7.57;2.42;;;15.10;99.90;;;;;;5052506;28;20085;-82
2023/10/02 05:32:31;;;;;;;5.45;2.55;;;15.00;99.90;;;;;;5032711;28;20358;-82
2023/10/02 05:35:05;;;;;;;9.40;3.05;;;15.00;99.90;;;;;;5036066;28;20087;-83
2023/10/02 05:37:32;;;;;;;;;;;15.00;99.90;;;;;;5047171;28;20044;-84
2023/10/02 05:42:46;;;;;;;6.13;2.92;;;14.90;99.90;;;;;;5049730;28;20484;-83
2023/10/02 05:45:17;;;;;;;4.93;2.13;;;14.90;99.90;;;;;;5030521;28;20386;-83
2023/10/02 05:47:46;;;;;;;5.57;2.05;;;14.90;99.90;;;;;;5037185;28;20036;-83
2023/10/02 05:50:12;;;;;;;8.70;2.72;;;14.90;99.90;;;;;;5038557;28;20063;-83
2023/10/02 05:52:48;;;;;;;7.20;2.80;;;14.90;99.90;;;;;;5047824;28;20041;-83
2023/10/02 05:55:17;;;;;;;5.75;2.97;;;14.90;99.90;;;;;;5034677;28;20480;-83
2023/10/02 05:57:43;;;;;;;8.77;3.38;;;14.90;99.90;;;;;;5048477;28;20072;-83
2023/10/02 06:00:17;;;;;;;5.45;2.45;;;15.00;99.90;;;;;;5052454;28;20496;-82
2023/10/02 06:02:57;;;;;;;5.88;2.63;;;15.00;99.90;;;;;;5034100;28;20041;-83
2023/10/02 06:05:23;;;;;;;7.82;2.60;;;15.00;99.90;;;;;;5040649;28;20107;-83
2023/10/02 06:07:51;;;;;;;8.13;2.65;;;14.90;99.90;;;;;;5028455;28;20075;-83
2023/10/02 06:10:26;;;;;;;8.20;3.05;;;15.00;99.90;;;;;;5031290;28;20044;-82
2023/10/02 06:13:06;;;;;;;8.73;3.25;;;15.00;99.90;;;;;;5046805;28;20067;-83
2023/10/02 06:15:49;;;;;;;5.13;2.70;;;15.00;99.90;;;;;;5033231;28;20105;-83
2023/10/02 06:18:27;;;;;;;6.32;2.60;;;15.10;99.90;;;;;;5046369;28;20116;-83
2023/10/02 06:21:03;;;;;;;5.15;2.60;;;15.10;99.90;;;;;;5049554;28;20087;-83
2023/10/02 06:23:38;;;;;;;5.18;2.28;;;15.20;99.90;;;;;;5048417;28;20036;-83
2023/10/02 06:26:10;;;;;;;9.15;2.85;;;15.20;99.90;;;;;;5035707;28;20493;-84
2023/10/02 06:28:41;;;;;;;8.00;2.80;;;15.20;99.90;;;;;;5033791;28;20055;-83
2023/10/02 06:31:08;;;;;;;7.70;2.38;;;15.30;99.90;;;;;;5064477;28;20622;-83
2023/10/02 06:33:37;;;;;;;5.43;2.55;;;15.30;99.90;;;;;;5049288;28;20040;-83
2023/10/02 06:36:08;;;;;;;5.53;2.53;;;15.40;99.90;;;;;;5032583;28;20103;-83
2023/10/02 06:38:35;;;;;;;10.95;2.58;;;15.40;99.90;;;;;;5046615;28;20105;-84
2023/10/02 06:41:09;;;;;;;5.90;2.85;;;15.50;99.90;;;;;;5052306;28;20416;-84
2023/10/02 06:43:35;;;;;;;3.60;1.88;;;15.60;99.90;;;;;;5042945;28;20063;-84
2023/10/02 06:46:13;;;;;;;6.88;2.63;;;15.60;99.90;;;;;;5051750;28;20396;-84
2023/10/02 06:48:43;;;;;;;6.70;2.75;;;15.70;99.90;;;;;;5030886;28;20032;-84
2023/10/02 06:51:11;;;;;;;5.03;2.20;;;15.80;99.90;;;;;;5052515;28;20037;-83
2023/10/02 06:53:40;;;;;;;6.22;1.98;;;15.80;99.90;;;;;;5032496;28;20039;-84
2023/10/02 06:56:10;;;;;;;7.38;2.88;;;15.80;99.90;;;;;;5031483;28;20036;-84
2023/10/02 06:58:49;;;;;;;5.80;2.42;;;15.90;99.90;;;;;;5050326;28;20037;-83
2023/10/02 07:01:18;;;;;;;5.65;2.78;;;15.90;99.90;;;;;;5049662;28;20451;-84
2023/10/02 07:03:51;;;;;;;6.18;3.03;;;16.00;99.90;;;;;;5050087;28;20035;-84
2023/10/02 07:06:21;;;;;;;7.15;3.03;;;16.00;99.90;;;;;;5044461;28;20052;-83
2023/10/02 07:09:10;;;;;;;6.20;2.83;;;16.20;99.90;;;;;;5030095;28;20056;-83
2023/10/02 07:11:42;;;;;;;7.00;2.30;;;16.20;99.90;;;;;;5031806;28;20473;-80
2023/10/02 07:14:12;;;;;;;6.43;2.13;;;16.40;99.90;;;;;;5046118;28;20079;-83
2023/10/02 07:16:41;;;;;;;7.72;2.60;;;16.50;99.90;;;;;;5030226;28;20576;-83
2023/10/02 07:19:07;;;;;;;6.88;2.63;;;16.80;99.90;;;;;;5031693;28;20080;-84
2023/10/02 07:21:35;;;;;;;6.20;2.85;;;16.90;99.90;;;;;;5044985;28;20485;-83
2023/10/02 07:24:03;;;;;;;7.88;2.95;;;17.10;99.90;;;;;;5031441;28;20134;-84
2023/10/02 07:29:17;;;;;;;6.15;2.88;;;17.30;99.90;;;;;;5048455;28;20094;-84
2023/10/02 07:31:44;;;;;;;7.65;2.45;;;17.50;99.90;;;;;;5046593;28;20041;-83
2023/10/02 07:34:15;;;;;;;5.38;2.88;;;17.70;99.90;;;;;;5032561;28;20501;-83
2023/10/02 07:36:44;;;;;;;8.27;2.97;;;18.00;99.90;;;;;;5030574;28;20152;-83
2023/10/02 07:42:00;;;;;;;6.45;2.72;;;18.60;99.90;;;;;;5046776;28;20106;-84
2023/10/02 07:44:36;;;;;;;6.03;2.50;;;18.80;99.90;;;;;;5028895;28;20079;-84
2023/10/02 07:47:10;;;;;;;7.50;2.25;;;19.10;99.90;;;;;;5030236;28;20128;-84
2023/10/02 07:49:39;;;;;;;4.72;2.38;;;19.30;99.90;;;;;;5032963;28;20190;-84
2023/10/02 07:52:08;;;;;;;6.18;2.50;;;19.60;99.90;;;;;;5050489;28;20044;-83
2023/10/02 07:54:44;;;;;;;5.03;2.50;;;19.90;99.90;;;;;;5036923;28;20044;-83
2023/10/02 07:57:13;;;;;;;6.10;2.78;;;20.20;99.90;;;;;;5049126;28;20045;-83
2023/10/02 07:59:43;;;;;;;5.35;2.55;;;20.40;99.90;;;;;;5033290;28;20045;-83
2023/10/02 08:02:23;;;;;;;5.18;2.63;;;20.50;99.90;;;;;;5033995;28;20036;-84
2023/10/02 08:04:51;;;;;;;7.35;2.30;;;20.70;99.90;;;;;;5051384;28;20075;-83
2023/10/02 08:07:18;;;;;;;5.82;2.38;;;21.00;99.90;;;;;;5029471;28;20029;-84
2023/10/02 08:09:47;;;;;;;5.25;2.50;;;21.30;99.90;;;;;;5051587;28;20045;-84
2023/10/02 08:12:29;;;;;;;7.40;2.72;;;21.50;99.90;;;;;;5035849;28;20117;-84
2023/10/02 08:15:26;;;;;;;5.57;2.17;;;21.70;99.90;;;;;;5052282;28;20699;-82
2023/10/02 08:20:24;;;;;;;9.35;2.70;;;22.10;99.90;;;;;;5052447;28;20441;-81
2023/10/02 08:22:52;;;;;;;9.82;3.20;;;22.20;99.90;;;;;;5034576;28;20458;-82
2023/10/02 08:25:23;;;;;;;7.10;2.65;;;22.30;99.90;;;;;;5035700;28;20094;-81
2023/10/02 08:27:57;;;;;;;13.80;2.90;;;22.40;99.90;;;;;;5032050;28;20033;-83
2023/10/02 08:30:31;;;;;;;7.85;3.03;;;22.50;99.90;;;;;;5050679;28;20120;-81
2023/10/02 08:33:08;;;;;;;;;;;22.90;99.90;;;;;;5030065;28;20040;-81
2023/10/02 08:35:37;;;;;;;7.50;2.10;;;23.30;99.90;;;;;;5051367;28;19946;-82
2023/10/02 08:38:07;;;;;;;6.10;2.75;;;23.80;99.90;;;;;;5033165;28;20041;-81
2023/10/02 08:40:33;;;;;;;5.22;1.92;;;24.10;99.90;;;;;;5034255;28;20044;-81
2023/10/02 08:42:59;;;;;;;5.95;2.25;;;24.10;99.90;;;;;;5049829;28;20044;-81
2023/10/02 08:45:26;;;;;;;6.78;2.60;;;23.80;99.90;;;;;;5034348;28;20053;-81
2023/10/02 08:47:52;;;;;;;7.38;2.88;;;23.30;99.90;;;;;;5049758;28;20041;-82
2023/10/02 08:50:18;;;;;;;6.57;2.60;;;22.70;99.90;;;;;;5034453;28;20481;-81
2023/10/02 08:52:50;;;;;;;5.22;1.90;;;22.30;99.90;;;;;;5046176;28;20116;-81
2023/10/02 08:55:34;;;;;;;7.93;2.78;;;21.90;99.90;;;;;;5051235;28;20389;-81
2023/10/02 08:58:15;;;;;;;6.47;2.10;;;21.80;99.90;;;;;;5030405;28;20037;-81
2023/10/02 09:03:44;;;;;;;5.13;2.63;;;21.90;99.90;;;;;;5047428;28;20037;-81
2023/10/02 09:06:35;;;;;;;7.45;2.80;;;21.90;99.90;;;;;;5033268;28;20049;-82
2023/10/02 09:11:44;;;;;;;8.80;3.35;;;22.40;99.90;;;;;;5048006;28;20155;-81
2023/10/02 09:16:48;;;;;;;4.97;2.75;;;23.10;99.90;;;;;;5050426;28;20401;-81
2023/10/02 09:19:30;;;;;;;6.70;3.40;;;23.20;99.90;;;;;;5049979;28;20037;-81
2023/10/02 09:22:06;;;;;;;8.23;3.58;;;23.10;99.90;;;;;;5031109;28;20037;-82
2023/10/02 09:24:40;;;;;;;7.90;3.25;;;23.20;99.90;;;;;;5049843;28;20103;-81
2023/10/02 09:27:30;;;;;;;8.18;3.63;;;23.30;99.90;;;;;;5048625;28;20053;-81
2023/10/02 09:32:52;;;;;;;7.22;3.00;;;24.00;99.90;;;;;;5049589;28;20036;-82
2023/10/02 09:35:44;;;;;;;9.70;3.15;;;24.40;99.90;;;;;;5048436;28;20087;-82
2023/10/02 09:38:13;;;;;;;10.13;4.38;;;24.50;99.90;;;;;;5048735;28;20068;-81
2023/10/02 09:41:11;;;;;;;8.68;3.60;;;24.30;99.90;;;;;;5048333;28;20045;-81
2023/10/02 09:43:37;;;;;;;10.35;3.70;;;24.60;99.90;;;;;;5028394;28;20036;-81
2023/10/02 09:46:15;;;;;;;7.93;3.40;;;24.40;99.90;;;;;;5029580;28;20091;-81
2023/10/02 09:49:01;;;;;;;7.38;3.25;;;24.10;99.90;;;;;;5033340;28;20044;-81
2023/10/02 09:51:30;;;;;;;9.05;3.72;;;23.60;99.90;;;;;;5028503;28;20560;-81
2023/10/02 09:54:13;;;;;;;8.57;3.22;;;23.30;99.90;;;;;;5049160;28;20037;-81
2023/10/02 09:57:04;;;;;;;7.38;3.03;;;22.90;99.90;;;;;;5048912;28;20048;-81
2023/10/02 09:59:46;;;;;;;6.15;2.70;;;22.60;99.90;;;;;;5044987;28;20049;-81
2023/10/02 10:02:49;;;;;;;5.80;2.63;;;22.30;99.90;;;;;;5030114;28;20044;-81
2023/10/02 10:07:46;;;;;;;5.25;2.88;;;22.00;99.90;;;;;;5047424;28;20100;-81
2023/10/02 10:10:49;;;;;;;9.93;2.63;;;22.30;99.90;;;;;;5032752;28;20052;-81
2023/10/02 10:13:46;;;;;;;5.82;3.20;;;22.50;99.90;;;;;;5045519;28;20052;-81
2023/10/02 10:16:29;;;;;;;8.70;2.67;;;23.00;99.90;;;;;;5046909;28;20537;-81
2023/10/02 10:21:56;;;;;;;7.68;3.60;;;22.90;99.90;;;;;;5045066;28;20529;-81
2023/10/02 10:24:58;;;;;;;9.57;3.60;;;22.70;99.90;;;;;;5032908;28;20041;-81
2023/10/02 10:27:39;;;;;;;13.90;4.15;;;22.60;99.90;;;;;;5030767;28;20051;-81
2023/10/02 10:30:28;;;;;;;18.45;4.38;;;22.60;99.90;;;;;;5048764;28;20036;-81
2023/10/02 10:35:40;;;;;;;8.13;3.08;;;23.00;99.90;;;;;;5045313;28;20114;-84
2023/10/02 10:40:50;;;;;;;12.65;3.38;;;23.20;99.90;;;;;;5046952;28;20060;-83
2023/10/02 10:43:21;;;;;;;6.68;3.13;;;23.30;99.90;;;;;;5047116;28;20433;-83
2023/10/02 10:45:51;;;;;;;7.22;3.30;;;23.60;99.90;;;;;;5047884;28;20109;-84
2023/10/02 10:48:22;;;;;;;7.13;3.10;;;24.10;99.90;;;;;;5044430;28;20048;-81
2023/10/02 10:51:06;;;;;;;8.40;3.10;;;24.80;99.90;;;;;;5044508;28;20140;-81
2023/10/02 10:53:41;;;;;;;10.70;3.78;;;25.50;99.90;;;;;;5045537;28;20128;-81
2023/10/02 10:56:19;;;;;;;10.32;3.30;;;25.90;99.90;;;;;;5043767;28;20125;-81
2023/10/02 10:58:52;;;;;;;7.80;3.17;;;25.60;99.90;;;;;;5028798;28;20673;-82
2023/10/02 11:01:21;;;;;;;8.82;3.20;;;25.20;99.90;;;;;;5047656;28;20413;-81
2023/10/02 11:03:59;;;;;;;9.02;3.67;;;25.20;99.90;;;;;;5046172;28;20064;-81
2023/10/02 11:06:24;;;;;;;9.07;3.45;;;25.10;99.90;;;;;;5028279;28;20048;-82
2023/10/02 11:09:16;;;;;;;7.10;3.17;;;24.80;99.90;;;;;;5030512;28;20048;-81
2023/10/02 11:11:53;;;;;;;6.28;3.35;;;24.70;99.90;;;;;;5031174;28;20131;-80
2023/10/02 11:14:34;;;;;;;9.25;3.08;;;24.50;99.90;;;;;;5047869;28;20060;-80
2023/10/02 11:17:11;;;;;;;7.28;2.90;;;24.20;99.90;;;;;;5045789;28;20033;-82
2023/10/02 11:19:45;;;;;;;14.60;3.55;;;23.90;99.90;;;;;;5028194;28;20029;-81
2023/10/02 11:22:15;;;;;;;6.20;3.17;;;23.70;99.90;;;;;;5046188;28;20057;-81
2023/10/02 11:24:55;;;;;;;4.90;2.70;;;23.50;99.90;;;;;;5049251;28;20148;-80
2023/10/02 11:27:22;;;;;;;8.05;3.20;;;23.40;99.90;;;;;;5039145;28;20081;-81
2023/10/02 11:30:01;;;;;;;7.07;3.38;;;23.30;99.90;;;;;;5033508;28;20047;-80
2023/10/02 11:33:05;;;;;;;9.32;3.55;;;23.30;99.90;;;;;;5034059;28;20672;-80
2023/10/02 11:35:38;;;;;;;8.70;3.33;;;23.20;99.90;;;;;;5034667;28;20033;-80
2023/10/02 11:38:07;;;;;;;6.50;3.17;;;23.10;99.90;;;;;;5050181;28;20404;-80
2023/10/02 11:40:36;;;;;;;9.50;3.65;;;23.10;99.90;;;;;;5032610;28;20090;-81
2023/10/02 11:43:02;;;;;;;7.18;3.30;;;23.00;99.90;;;;;;5047883;28;20056;-80
2023/10/02 11:45:33;;;;;;;7.57;2.78;;;23.10;99.90;;;;;;5050065;28;20121;-80
2023/10/02 11:47:59;;;;;;;7.78;2.80;;;23.00;99.90;;;;;;5032243;28;20127;-81
2023/10/02 11:50:25;;;;;;;7.80;2.85;;;23.10;99.90;;;;;;5050279;28;20116;-80
2023/10/02 11:52:51;;;;;;;7.90;3.10;;;23.10;99.90;;;;;;5051084;28;20041;-81
2023/10/02 11:55:18;;;;;;;8.77;2.45;;;23.00;99.90;;;;;;5034294;28;20656;-81
2023/10/02 11:57:53;;;;;;;7.78;2.70;;;23.10;99.90;;;;;;5035088;28;20044;-81
2023/10/02 12:00:24;;;;;;;7.40;2.40;;;23.10;99.90;;;;;;5049875;28;20456;-81
2023/10/02 12:02:50;;;;;;;10.85;3.20;;;23.10;99.90;;;;;;5051263;28;20466;-81
2023/10/02 12:05:16;;;;;;;4.10;2.08;;;23.20;99.90;;;;;;5047497;28;20510;-81
2023/10/02 12:07:44;;;;;;;8.40;2.78;;;23.20;99.90;;;;;;5049348;28;20076;-81
2023/10/02 12:10:15;;;;;;;6.38;2.33;;;23.20;99.90;;;;;;5028950;28;20072;-81
2023/10/02 12:12:45;;;;;;;5.82;2.30;;;23.30;99.90;;;;;;5025060;28;20108;-80
2023/10/02 12:15:14;;;;;;;3.63;1.70;;;23.60;99.90;;;;;;5031359;28;20029;-80
2023/10/02 12:17:40;;;;;;;7.60;2.50;;;24.00;99.90;;;;;;5015660;28;20034;-80
2023/10/02 12:20:10;;;;;;;7.55;2.67;;;24.10;99.90;;;;;;5012043;28;20080;-80
2023/10/02 12:22:37;;;;;;;5.57;2.08;;;24.10;99.90;;;;;;5015338;28;20066;-80
2023/10/02 12:25:04;;;;;;;4.60;1.63;;;24.10;99.90;;;;;;5032132;28;20033;-82
2023/10/02 12:27:32;;;;;;;6.18;2.22;;;24.20;99.90;;;;;;5033692;28;20045;-80
2023/10/02 12:29:58;;;;;;;6.38;1.88;;;24.10;99.90;;;;;;5032936;28;20493;-80
2023/10/02 12:32:27;;;;;;;5.07;1.92;;;23.90;99.90;;;;;;5011877;28;20034;-81
2023/10/02 12:34:53;;;;;;;4.90;1.60;;;23.90;99.90;;;;;;5032895;28;20045;-80
2023/10/02 12:37:20;;;;;;;6.38;1.95;;;23.80;99.90;;;;;;5034848;28;20052;-80
2023/10/02 12:39:47;;;;;;;3.35;1.33;;;23.90;99.90;;;;;;5033507;28;20045;-81
2023/10/02 12:42:14;;;;;;;5.57;1.70;;;24.20;99.90;;;;;;5029076;28;20452;-81
2023/10/02 12:44:41;;;;;;;2.95;1.38;;;24.40;99.90;;;;;;5032531;28;20081;-80
2023/10/02 12:47:07;;;;;;;6.20;1.70;;;24.60;99.90;;;;;;5020866;28;20087;-80
2023/10/02 12:49:35;;;;;;;3.80;1.30;;;24.50;99.90;;;;;;5033874;28;20048;-80
2023/10/02 12:52:00;;;;;;;3.45;1.55;;;24.40;99.90;;;;;;5032621;28;20103;-81
2023/10/02 12:54:27;;;;;;;2.78;1.23;;;24.20;99.90;;;;;;5029857;28;20037;-80
2023/10/02 12:56:53;;;;;;;5.68;1.58;;;24.10;99.90;;;;;;5031851;28;20493;-80
2023/10/02 12:59:19;;;;;;;4.90;1.30;;;23.90;99.90;;;;;;5020229;28;20049;-81
2023/10/02 13:01:45;;;;;;;3.90;1.67;;;23.90;99.90;;;;;;5017546;28;20049;-80
2023/10/02 13:04:12;;;;;;;7.82;2.00;;;24.00;99.90;;;;;;5035209;28;20041;-81
2023/10/02 13:06:38;;;;;;;4.00;1.48;;;24.10;99.90;;;;;;5032841;28;20041;-81
2023/10/02 13:09:10;;;;;;;6.57;1.65;;;24.30;99.90;;;;;;5020524;28;20050;-81
2023/10/02 13:11:39;;;;;;;3.25;1.23;;;24.30;99.90;;;;;;5032945;28;20041;-81
2023/10/02 13:14:08;;;;;;;6.82;1.90;;;24.10;99.90;;;;;;5015627;28;20052;-81
2023/10/02 13:16:38;;;;;;;4.50;1.98;;;24.00;99.90;;;;;;5031345;28;20148;-81
2023/10/02 13:19:09;;;;;;;2.83;1.45;;;24.10;99.90;;;;;;5035131;28;20071;-81
2023/10/02 13:21:37;;;;;;;3.20;1.52;;;24.10;99.90;;;;;;5033566;28;20053;-81
2023/10/02 13:24:05;;;;;;;2.33;1.00;;;24.00;99.90;;;;;;5029800;28;20038;-81
2023/10/02 13:26:31;;;;;;;4.10;1.65;;;23.90;99.90;;;;;;5034835;28;20080;-81
2023/10/02 13:28:56;;;;;;;3.83;1.30;;;23.90;99.90;;;;;;5026944;28;20060;-81
2023/10/02 13:31:24;;;;;;;4.15;1.27;;;23.90;99.90;;;;;;5022405;28;20124;-82
2023/10/02 13:33:52;;;;;;;5.35;1.42;;;23.90;99.90;;;;;;5029877;28;20033;-82
2023/10/02 13:36:23;;;;;;;5.93;1.77;;;23.80;99.90;;;;;;5029568;28;20073;-81
2023/10/02 13:38:53;;;;;;;3.67;1.25;;;23.70;99.90;;;;;;5032193;28;20041;-81
2023/10/02 13:41:19;;;;;;;3.78;1.38;;;23.60;99.90;;;;;;5026622;28;20038;-82
2023/10/02 13:43:45;;;;;;;3.95;1.23;;;23.50;99.90;;;;;;5031063;28;20425;-81
2023/10/02 13:46:14;;;;;;;7.15;1.45;;;23.50;99.90;;;;;;5017001;28;20042;-81
2023/10/02 13:48:44;;;;;;;3.35;1.45;;;23.50;99.90;;;;;;5013447;28;20140;-82
2023/10/02 13:51:12;;;;;;;3.58;1.20;;;23.40;99.90;;;;;;5032505;28;20626;-82
2023/10/02 13:53:40;;;;;;;2.55;1.50;;;23.30;99.90;;;;;;5033376;28;20040;-81
2023/10/02 13:56:15;;;;;;;5.10;1.65;;;23.30;99.90;;;;;;5030236;28;20057;-81
2023/10/02 13:58:53;;;;;;;5.18;1.15;;;23.30;99.90;;;;;;5016599;28;20050;-81
2023/10/02 14:01:20;;;;;;;5.00;1.42;;;23.30;99.90;;;;;;5016862;28;20072;-82
2023/10/02 14:03:49;;;;;;;4.00;1.10;;;23.30;99.90;;;;;;5013906;28;20049;-81
2023/10/02 14:06:16;;;;;;;5.03;1.40;;;23.30;99.90;;;;;;5030174;28;20052;-81
2023/10/02 14:08:49;;;;;;;4.22;1.55;;;23.30;99.90;;;;;;5041393;28;20091;-81
2023/10/02 14:11:20;;;;;;;3.30;1.67;;;23.30;99.90;;;;;;5034939;28;20056;-81
2023/10/02 14:13:49;;;;;;;4.00;1.88;;;23.30;99.90;;;;;;5054213;28;20041;-84
2023/10/02 14:16:19;;;;;;;4.25;1.42;;;23.20;99.90;;;;;;5054092;28;20143;-81
2023/10/02 14:18:51;;;;;;;3.92;1.25;;;23.20;99.90;;;;;;5037386;28;20072;-81
2023/10/02 14:21:29;;;;;;;4.85;1.38;;;23.20;99.90;;;;;;5049156;28;20130;-83
2023/10/02 14:23:55;;;;;;;2.83;1.27;;;23.10;99.90;;;;;;5054060;28;20044;-84